sensor_id;sensor_type;location;lat;lon;timestamp;P1;durP1;ratioP1;P2;durP2;ratioP2
85154;SDS011;75523;53.218;6.564;2024-02-26T00:01:31;61.83;;;56.95;;
85154;SDS011;75523;53.218;6.564;2024-02-26T00:03:58;61.80;;;56.88;;
85154;SDS011;75523;53.218;6.564;2024-02-26T00:06:25;58.60;;;53.80;;
85154;SDS011;75523;53.218;6.564;2024-02-26T00:08:50;63.42;;;58.25;;
85154;SDS011;75523;53.218;6.564;2024-02-26T00:11:16;59.50;;;54.83;;
85154;SDS011;75523;53.218;6.564;2024-02-26T00:13:41;60.65;;;56.03;;
85154;SDS011;75523;53.218;6.564;2024-02-26T00:16:06;63.10;;;58.10;;
85154;SDS011;75523;53.218;6.564;2024-02-26T00:18:33;61.63;;;56.88;;
85154;SDS011;75523;53.218;6.564;2024-02-26T00:20:58;60.92;;;56.35;;
85154;SDS011;75523;53.218;6.564;2024-02-26T00:23:24;59.08;;;54.95;;
85154;SDS011;75523;53.218;6.564;2024-02-26T00:25:49;58.60;;;54.28;;
85154;SDS011;75523;53.218;6.564;2024-02-26T00:28:15;60.10;;;55.85;;
85154;SDS011;75523;53.218;6.564;2024-02-26T00:30:41;62.90;;;58.45;;
85154;SDS011;75523;53.218;6.564;2024-02-26T00:33:06;58.13;;;54.00;;
85154;SDS011;75523;53.218;6.564;2024-02-26T00:35:31;57.92;;;54.08;;
85154;SDS011;75523;53.218;6.564;2024-02-26T00:37:57;57.50;;;53.78;;
85154;SDS011;75523;53.218;6.564;2024-02-26T00:40:23;56.47;;;52.78;;
85154;SDS011;75523;53.218;6.564;2024-02-26T00:42:49;56.38;;;52.47;;
85154;SDS011;75523;53.218;6.564;2024-02-26T00:45:15;54.60;;;51.17;;
85154;SDS011;75523;53.218;6.564;2024-02-26T00:47:41;55.60;;;51.90;;
85154;SDS011;75523;53.218;6.564;2024-02-26T00:50:07;51.67;;;48.38;;
85154;SDS011;75523;53.218;6.564;2024-02-26T00:52:34;57.40;;;53.78;;
85154;SDS011;75523;53.218;6.564;2024-02-26T00:54:59;54.60;;;51.08;;
85154;SDS011;75523;53.218;6.564;2024-02-26T00:57:25;54.20;;;50.70;;
85154;SDS011;75523;53.218;6.564;2024-02-26T00:59:50;57.50;;;53.90;;
85154;SDS011;75523;53.218;6.564;2024-02-26T01:02:16;53.15;;;49.90;;
85154;SDS011;75523;53.218;6.564;2024-02-26T01:04:41;56.85;;;53.25;;
85154;SDS011;75523;53.218;6.564;2024-02-26T01:07:06;55.28;;;51.67;;
85154;SDS011;75523;53.218;6.564;2024-02-26T01:09:32;54.78;;;51.13;;
85154;SDS011;75523;53.218;6.564;2024-02-26T01:11:58;54.15;;;50.67;;
85154;SDS011;75523;53.218;6.564;2024-02-26T01:14:24;53.60;;;50.17;;
85154;SDS011;75523;53.218;6.564;2024-02-26T01:16:49;54.35;;;50.95;;
85154;SDS011;75523;53.218;6.564;2024-02-26T01:19:15;51.92;;;48.38;;
85154;SDS011;75523;53.218;6.564;2024-02-26T01:21:40;54.28;;;50.75;;
85154;SDS011;75523;53.218;6.564;2024-02-26T01:24:06;52.28;;;49.08;;
85154;SDS011;75523;53.218;6.564;2024-02-26T01:26:32;51.50;;;48.28;;
85154;SDS011;75523;53.218;6.564;2024-02-26T01:28:57;53.53;;;50.22;;
85154;SDS011;75523;53.218;6.564;2024-02-26T01:31:23;51.08;;;48.08;;
85154;SDS011;75523;53.218;6.564;2024-02-26T01:33:48;51.63;;;48.63;;
85154;SDS011;75523;53.218;6.564;2024-02-26T01:36:14;53.67;;;50.67;;
85154;SDS011;75523;53.218;6.564;2024-02-26T01:38:40;48.78;;;45.88;;
85154;SDS011;75523;53.218;6.564;2024-02-26T01:41:05;50.42;;;47.42;;
85154;SDS011;75523;53.218;6.564;2024-02-26T01:43:31;54.17;;;50.83;;
85154;SDS011;75523;53.218;6.564;2024-02-26T01:45:57;52.05;;;49.05;;
85154;SDS011;75523;53.218;6.564;2024-02-26T01:48:22;47.92;;;45.03;;
85154;SDS011;75523;53.218;6.564;2024-02-26T01:50:48;52.28;;;49.25;;
85154;SDS011;75523;53.218;6.564;2024-02-26T01:53:13;52.88;;;49.72;;
85154;SDS011;75523;53.218;6.564;2024-02-26T01:55:39;48.58;;;45.80;;
85154;SDS011;75523;53.218;6.564;2024-02-26T01:58:05;51.50;;;48.58;;
85154;SDS011;75523;53.218;6.564;2024-02-26T02:00:31;50.50;;;47.55;;
85154;SDS011;75523;53.218;6.564;2024-02-26T02:02:56;49.85;;;47.05;;
85154;SDS011;75523;53.218;6.564;2024-02-26T02:05:22;51.75;;;48.72;;
85154;SDS011;75523;53.218;6.564;2024-02-26T02:07:48;52.63;;;49.60;;
85154;SDS011;75523;53.218;6.564;2024-02-26T02:10:14;49.28;;;46.50;;
85154;SDS011;75523;53.218;6.564;2024-02-26T02:12:40;51.92;;;48.78;;
85154;SDS011;75523;53.218;6.564;2024-02-26T02:15:06;49.35;;;46.17;;
85154;SDS011;75523;53.218;6.564;2024-02-26T02:17:32;48.67;;;45.80;;
85154;SDS011;75523;53.218;6.564;2024-02-26T02:19:58;50.35;;;47.50;;
85154;SDS011;75523;53.218;6.564;2024-02-26T02:22:23;50.00;;;47.13;;
85154;SDS011;75523;53.218;6.564;2024-02-26T02:24:49;47.83;;;45.10;;
85154;SDS011;75523;53.218;6.564;2024-02-26T02:27:16;48.42;;;45.47;;
85154;SDS011;75523;53.218;6.564;2024-02-26T02:29:42;49.08;;;45.92;;
85154;SDS011;75523;53.218;6.564;2024-02-26T02:32:08;50.58;;;47.75;;
85154;SDS011;75523;53.218;6.564;2024-02-26T02:34:34;51.05;;;48.25;;
85154;SDS011;75523;53.218;6.564;2024-02-26T02:36:59;47.17;;;44.42;;
85154;SDS011;75523;53.218;6.564;2024-02-26T02:39:25;50.38;;;47.55;;
85154;SDS011;75523;53.218;6.564;2024-02-26T02:41:50;49.45;;;46.28;;
85154;SDS011;75523;53.218;6.564;2024-02-26T02:44:16;50.90;;;48.00;;
85154;SDS011;75523;53.218;6.564;2024-02-26T02:46:42;47.63;;;45.10;;
85154;SDS011;75523;53.218;6.564;2024-02-26T02:49:10;50.30;;;47.60;;
85154;SDS011;75523;53.218;6.564;2024-02-26T02:54:01;52.50;;;49.70;;
85154;SDS011;75523;53.218;6.564;2024-02-26T02:56:27;50.72;;;47.95;;
85154;SDS011;75523;53.218;6.564;2024-02-26T02:58:53;48.22;;;45.65;;
85154;SDS011;75523;53.218;6.564;2024-02-26T03:01:18;46.90;;;44.20;;
85154;SDS011;75523;53.218;6.564;2024-02-26T03:03:44;47.40;;;44.83;;
85154;SDS011;75523;53.218;6.564;2024-02-26T03:06:10;49.08;;;46.28;;
85154;SDS011;75523;53.218;6.564;2024-02-26T03:08:35;50.95;;;48.25;;
85154;SDS011;75523;53.218;6.564;2024-02-26T03:11:05;50.45;;;47.83;;
85154;SDS011;75523;53.218;6.564;2024-02-26T03:13:30;48.78;;;46.13;;
85154;SDS011;75523;53.218;6.564;2024-02-26T03:15:56;51.33;;;48.58;;
85154;SDS011;75523;53.218;6.564;2024-02-26T03:18:22;49.10;;;46.40;;
85154;SDS011;75523;53.218;6.564;2024-02-26T03:20:47;51.20;;;48.47;;
85154;SDS011;75523;53.218;6.564;2024-02-26T03:23:14;47.50;;;45.05;;
85154;SDS011;75523;53.218;6.564;2024-02-26T03:25:44;51.72;;;48.92;;
85154;SDS011;75523;53.218;6.564;2024-02-26T03:28:11;48.10;;;45.60;;
85154;SDS011;75523;53.218;6.564;2024-02-26T03:30:38;46.50;;;44.05;;
85154;SDS011;75523;53.218;6.564;2024-02-26T03:33:03;49.55;;;46.95;;
85154;SDS011;75523;53.218;6.564;2024-02-26T03:35:29;51.78;;;48.97;;
85154;SDS011;75523;53.218;6.564;2024-02-26T03:37:55;48.08;;;45.28;;
85154;SDS011;75523;53.218;6.564;2024-02-26T03:40:20;46.22;;;43.63;;
85154;SDS011;75523;53.218;6.564;2024-02-26T03:42:46;47.15;;;44.63;;
85154;SDS011;75523;53.218;6.564;2024-02-26T03:45:11;49.38;;;46.53;;
85154;SDS011;75523;53.218;6.564;2024-02-26T03:47:37;47.10;;;44.58;;
85154;SDS011;75523;53.218;6.564;2024-02-26T03:50:04;47.15;;;44.47;;
85154;SDS011;75523;53.218;6.564;2024-02-26T03:52:30;48.50;;;45.67;;
85154;SDS011;75523;53.218;6.564;2024-02-26T03:54:55;44.83;;;42.28;;
85154;SDS011;75523;53.218;6.564;2024-02-26T03:57:21;46.70;;;44.28;;
85154;SDS011;75523;53.218;6.564;2024-02-26T03:59:46;47.70;;;45.28;;
85154;SDS011;75523;53.218;6.564;2024-02-26T04:02:11;47.67;;;45.17;;
85154;SDS011;75523;53.218;6.564;2024-02-26T04:04:37;48.60;;;45.75;;
85154;SDS011;75523;53.218;6.564;2024-02-26T04:07:02;47.55;;;45.03;;
85154;SDS011;75523;53.218;6.564;2024-02-26T04:09:28;47.67;;;45.17;;
85154;SDS011;75523;53.218;6.564;2024-02-26T04:11:56;47.57;;;44.93;;
85154;SDS011;75523;53.218;6.564;2024-02-26T04:14:22;50.00;;;47.38;;
85154;SDS011;75523;53.218;6.564;2024-02-26T04:16:47;49.65;;;47.20;;
85154;SDS011;75523;53.218;6.564;2024-02-26T04:21:42;46.95;;;44.47;;
85154;SDS011;75523;53.218;6.564;2024-02-26T04:24:07;45.38;;;43.03;;
85154;SDS011;75523;53.218;6.564;2024-02-26T04:26:32;47.53;;;45.03;;
85154;SDS011;75523;53.218;6.564;2024-02-26T04:28:58;46.70;;;44.30;;
85154;SDS011;75523;53.218;6.564;2024-02-26T04:31:24;48.55;;;46.05;;
85154;SDS011;75523;53.218;6.564;2024-02-26T04:33:49;43.80;;;41.20;;
85154;SDS011;75523;53.218;6.564;2024-02-26T04:36:15;46.38;;;44.00;;
85154;SDS011;75523;53.218;6.564;2024-02-26T04:38:42;44.33;;;41.97;;
85154;SDS011;75523;53.218;6.564;2024-02-26T04:41:10;46.80;;;44.47;;
85154;SDS011;75523;53.218;6.564;2024-02-26T04:43:36;44.65;;;42.30;;
85154;SDS011;75523;53.218;6.564;2024-02-26T04:46:06;45.95;;;43.45;;
85154;SDS011;75523;53.218;6.564;2024-02-26T04:48:35;44.95;;;42.25;;
85154;SDS011;75523;53.218;6.564;2024-02-26T04:51:01;46.60;;;44.33;;
85154;SDS011;75523;53.218;6.564;2024-02-26T04:53:27;44.53;;;42.33;;
85154;SDS011;75523;53.218;6.564;2024-02-26T04:55:52;46.70;;;44.30;;
85154;SDS011;75523;53.218;6.564;2024-02-26T04:58:18;46.65;;;44.03;;
85154;SDS011;75523;53.218;6.564;2024-02-26T05:00:44;43.22;;;40.85;;
85154;SDS011;75523;53.218;6.564;2024-02-26T05:03:09;43.58;;;41.28;;
85154;SDS011;75523;53.218;6.564;2024-02-26T05:08:04;45.75;;;43.38;;
85154;SDS011;75523;53.218;6.564;2024-02-26T05:10:29;43.88;;;41.30;;
85154;SDS011;75523;53.218;6.564;2024-02-26T05:12:55;43.67;;;41.55;;
85154;SDS011;75523;53.218;6.564;2024-02-26T05:15:20;48.75;;;46.47;;
85154;SDS011;75523;53.218;6.564;2024-02-26T05:17:46;47.53;;;45.28;;
85154;SDS011;75523;53.218;6.564;2024-02-26T05:20:11;46.80;;;44.60;;
85154;SDS011;75523;53.218;6.564;2024-02-26T05:22:37;46.95;;;44.75;;
85154;SDS011;75523;53.218;6.564;2024-02-26T05:25:03;45.20;;;43.00;;
85154;SDS011;75523;53.218;6.564;2024-02-26T05:27:29;44.25;;;42.15;;
85154;SDS011;75523;53.218;6.564;2024-02-26T05:29:54;45.08;;;42.88;;
85154;SDS011;75523;53.218;6.564;2024-02-26T05:32:20;43.70;;;41.67;;
85154;SDS011;75523;53.218;6.564;2024-02-26T05:34:45;42.72;;;40.72;;
85154;SDS011;75523;53.218;6.564;2024-02-26T05:37:11;45.20;;;43.00;;
85154;SDS011;75523;53.218;6.564;2024-02-26T05:39:36;43.75;;;41.70;;
85154;SDS011;75523;53.218;6.564;2024-02-26T05:42:02;43.95;;;41.80;;
85154;SDS011;75523;53.218;6.564;2024-02-26T05:44:28;43.75;;;41.75;;
85154;SDS011;75523;53.218;6.564;2024-02-26T05:46:54;44.95;;;42.75;;
85154;SDS011;75523;53.218;6.564;2024-02-26T05:49:19;43.92;;;41.83;;
85154;SDS011;75523;53.218;6.564;2024-02-26T05:51:45;44.78;;;42.60;;
85154;SDS011;75523;53.218;6.564;2024-02-26T05:54:11;43.22;;;41.22;;
85154;SDS011;75523;53.218;6.564;2024-02-26T05:56:36;42.03;;;39.78;;
85154;SDS011;75523;53.218;6.564;2024-02-26T05:59:02;40.42;;;38.47;;
85154;SDS011;75523;53.218;6.564;2024-02-26T06:01:28;45.70;;;43.50;;
85154;SDS011;75523;53.218;6.564;2024-02-26T06:03:53;42.20;;;40.25;;
85154;SDS011;75523;53.218;6.564;2024-02-26T06:06:19;41.40;;;39.42;;
85154;SDS011;75523;53.218;6.564;2024-02-26T06:08:47;44.50;;;42.30;;
85154;SDS011;75523;53.218;6.564;2024-02-26T06:11:12;44.90;;;42.72;;
85154;SDS011;75523;53.218;6.564;2024-02-26T06:13:38;44.72;;;42.55;;
85154;SDS011;75523;53.218;6.564;2024-02-26T06:16:03;41.50;;;39.58;;
85154;SDS011;75523;53.218;6.564;2024-02-26T06:18:30;41.65;;;39.75;;
85154;SDS011;75523;53.218;6.564;2024-02-26T06:20:55;40.58;;;38.58;;
85154;SDS011;75523;53.218;6.564;2024-02-26T06:23:21;44.00;;;42.00;;
85154;SDS011;75523;53.218;6.564;2024-02-26T06:25:46;41.97;;;39.80;;
85154;SDS011;75523;53.218;6.564;2024-02-26T06:28:13;41.30;;;39.33;;
85154;SDS011;75523;53.218;6.564;2024-02-26T06:30:38;41.35;;;39.20;;
85154;SDS011;75523;53.218;6.564;2024-02-26T06:33:04;44.55;;;42.45;;
85154;SDS011;75523;53.218;6.564;2024-02-26T06:35:30;42.88;;;40.88;;
85154;SDS011;75523;53.218;6.564;2024-02-26T06:37:55;42.92;;;40.75;;
85154;SDS011;75523;53.218;6.564;2024-02-26T06:40:21;44.17;;;41.95;;
85154;SDS011;75523;53.218;6.564;2024-02-26T06:42:46;44.17;;;42.08;;
85154;SDS011;75523;53.218;6.564;2024-02-26T06:45:12;41.08;;;38.88;;
85154;SDS011;75523;53.218;6.564;2024-02-26T06:47:38;43.42;;;41.33;;
85154;SDS011;75523;53.218;6.564;2024-02-26T06:50:03;43.72;;;41.53;;
85154;SDS011;75523;53.218;6.564;2024-02-26T06:52:29;42.80;;;40.67;;
85154;SDS011;75523;53.218;6.564;2024-02-26T06:54:55;39.83;;;37.92;;
85154;SDS011;75523;53.218;6.564;2024-02-26T06:57:20;41.40;;;39.13;;
85154;SDS011;75523;53.218;6.564;2024-02-26T06:59:46;42.40;;;40.40;;
85154;SDS011;75523;53.218;6.564;2024-02-26T07:02:13;40.53;;;38.60;;
85154;SDS011;75523;53.218;6.564;2024-02-26T07:04:39;46.67;;;44.38;;
85154;SDS011;75523;53.218;6.564;2024-02-26T07:07:04;46.20;;;44.10;;
85154;SDS011;75523;53.218;6.564;2024-02-26T07:09:30;45.63;;;43.38;;
85154;SDS011;75523;53.218;6.564;2024-02-26T07:11:55;40.53;;;38.67;;
85154;SDS011;75523;53.218;6.564;2024-02-26T07:14:21;43.67;;;41.33;;
85154;SDS011;75523;53.218;6.564;2024-02-26T07:16:46;42.92;;;40.92;;
85154;SDS011;75523;53.218;6.564;2024-02-26T07:19:12;44.45;;;42.25;;
85154;SDS011;75523;53.218;6.564;2024-02-26T07:21:37;43.10;;;40.95;;
85154;SDS011;75523;53.218;6.564;2024-02-26T07:24:04;40.22;;;38.13;;
85154;SDS011;75523;53.218;6.564;2024-02-26T07:26:30;37.75;;;35.78;;
85154;SDS011;75523;53.218;6.564;2024-02-26T07:28:56;45.13;;;42.83;;
85154;SDS011;75523;53.218;6.564;2024-02-26T07:31:21;43.20;;;40.80;;
85154;SDS011;75523;53.218;6.564;2024-02-26T07:33:46;44.25;;;42.00;;
85154;SDS011;75523;53.218;6.564;2024-02-26T07:36:12;43.67;;;41.40;;
85154;SDS011;75523;53.218;6.564;2024-02-26T07:38:37;42.53;;;40.33;;
85154;SDS011;75523;53.218;6.564;2024-02-26T07:41:03;41.78;;;39.88;;
85154;SDS011;75523;53.218;6.564;2024-02-26T07:43:29;39.25;;;37.33;;
85154;SDS011;75523;53.218;6.564;2024-02-26T07:45:55;42.28;;;40.17;;
85154;SDS011;75523;53.218;6.564;2024-02-26T07:48:21;42.67;;;40.35;;
85154;SDS011;75523;53.218;6.564;2024-02-26T07:50:46;42.53;;;40.35;;
85154;SDS011;75523;53.218;6.564;2024-02-26T07:53:12;43.50;;;41.40;;
85154;SDS011;75523;53.218;6.564;2024-02-26T07:55:38;41.22;;;39.22;;
85154;SDS011;75523;53.218;6.564;2024-02-26T07:58:04;41.35;;;39.15;;
85154;SDS011;75523;53.218;6.564;2024-02-26T08:00:29;43.92;;;41.70;;
85154;SDS011;75523;53.218;6.564;2024-02-26T08:02:55;41.85;;;39.75;;
85154;SDS011;75523;53.218;6.564;2024-02-26T08:05:21;39.13;;;37.33;;
85154;SDS011;75523;53.218;6.564;2024-02-26T08:07:46;41.03;;;39.03;;
85154;SDS011;75523;53.218;6.564;2024-02-26T08:10:12;41.85;;;39.97;;
85154;SDS011;75523;53.218;6.564;2024-02-26T08:12:37;40.17;;;38.28;;
85154;SDS011;75523;53.218;6.564;2024-02-26T08:15:03;40.30;;;38.50;;
85154;SDS011;75523;53.218;6.564;2024-02-26T08:17:29;43.15;;;41.00;;
85154;SDS011;75523;53.218;6.564;2024-02-26T08:19:55;43.25;;;41.20;;
85154;SDS011;75523;53.218;6.564;2024-02-26T08:22:23;40.33;;;38.53;;
85154;SDS011;75523;53.218;6.564;2024-02-26T08:24:48;42.35;;;40.42;;
85154;SDS011;75523;53.218;6.564;2024-02-26T08:27:14;42.78;;;40.85;;
85154;SDS011;75523;53.218;6.564;2024-02-26T08:29:39;40.35;;;38.55;;
85154;SDS011;75523;53.218;6.564;2024-02-26T08:32:05;43.85;;;41.85;;
85154;SDS011;75523;53.218;6.564;2024-02-26T08:34:32;41.03;;;39.22;;
85154;SDS011;75523;53.218;6.564;2024-02-26T08:36:57;40.63;;;38.53;;
85154;SDS011;75523;53.218;6.564;2024-02-26T08:39:23;42.00;;;40.10;;
85154;SDS011;75523;53.218;6.564;2024-02-26T08:41:48;41.97;;;40.10;;
85154;SDS011;75523;53.218;6.564;2024-02-26T08:44:14;42.10;;;40.05;;
85154;SDS011;75523;53.218;6.564;2024-02-26T08:46:39;41.95;;;40.05;;
85154;SDS011;75523;53.218;6.564;2024-02-26T08:49:05;41.20;;;39.03;;
85154;SDS011;75523;53.218;6.564;2024-02-26T08:51:30;46.33;;;43.95;;
85154;SDS011;75523;53.218;6.564;2024-02-26T08:53:56;41.15;;;39.22;;
85154;SDS011;75523;53.218;6.564;2024-02-26T08:56:21;42.72;;;40.83;;
85154;SDS011;75523;53.218;6.564;2024-02-26T08:58:47;44.75;;;42.75;;
85154;SDS011;75523;53.218;6.564;2024-02-26T09:01:14;40.92;;;39.03;;
85154;SDS011;75523;53.218;6.564;2024-02-26T09:03:40;40.15;;;38.20;;
85154;SDS011;75523;53.218;6.564;2024-02-26T09:06:06;42.00;;;40.03;;
85154;SDS011;75523;53.218;6.564;2024-02-26T09:08:32;40.70;;;38.83;;
85154;SDS011;75523;53.218;6.564;2024-02-26T09:10:58;44.65;;;42.63;;
85154;SDS011;75523;53.218;6.564;2024-02-26T09:13:24;41.67;;;39.67;;
85154;SDS011;75523;53.218;6.564;2024-02-26T09:15:49;41.90;;;40.00;;
85154;SDS011;75523;53.218;6.564;2024-02-26T09:18:15;40.42;;;38.50;;
85154;SDS011;75523;53.218;6.564;2024-02-26T09:20:41;43.05;;;41.05;;
85154;SDS011;75523;53.218;6.564;2024-02-26T09:23:06;41.10;;;39.10;;
85154;SDS011;75523;53.218;6.564;2024-02-26T09:25:32;40.97;;;39.10;;
85154;SDS011;75523;53.218;6.564;2024-02-26T09:27:59;39.65;;;37.85;;
85154;SDS011;75523;53.218;6.564;2024-02-26T09:30:24;40.60;;;38.72;;
85154;SDS011;75523;53.218;6.564;2024-02-26T09:32:50;39.13;;;37.25;;
85154;SDS011;75523;53.218;6.564;2024-02-26T09:35:15;36.95;;;35.25;;
85154;SDS011;75523;53.218;6.564;2024-02-26T09:37:41;38.58;;;36.45;;
85154;SDS011;75523;53.218;6.564;2024-02-26T09:40:08;41.80;;;39.50;;
85154;SDS011;75523;53.218;6.564;2024-02-26T09:42:36;45.63;;;43.00;;
85154;SDS011;75523;53.218;6.564;2024-02-26T09:45:04;40.72;;;38.50;;
85154;SDS011;75523;53.218;6.564;2024-02-26T09:47:33;42.72;;;40.40;;
85154;SDS011;75523;53.218;6.564;2024-02-26T09:50:01;38.80;;;36.67;;
85154;SDS011;75523;53.218;6.564;2024-02-26T09:52:28;40.60;;;38.03;;
85154;SDS011;75523;53.218;6.564;2024-02-26T09:54:54;41.08;;;39.03;;
85154;SDS011;75523;53.218;6.564;2024-02-26T09:57:19;40.88;;;38.80;;
85154;SDS011;75523;53.218;6.564;2024-02-26T09:59:49;43.78;;;41.40;;
85154;SDS011;75523;53.218;6.564;2024-02-26T10:02:16;43.25;;;41.15;;
85154;SDS011;75523;53.218;6.564;2024-02-26T10:04:43;40.03;;;38.03;;
85154;SDS011;75523;53.218;6.564;2024-02-26T10:07:12;41.53;;;38.95;;
85154;SDS011;75523;53.218;6.564;2024-02-26T10:09:38;38.83;;;37.13;;
85154;SDS011;75523;53.218;6.564;2024-02-26T10:12:05;40.20;;;38.28;;
85154;SDS011;75523;53.218;6.564;2024-02-26T10:14:33;40.20;;;38.35;;
85154;SDS011;75523;53.218;6.564;2024-02-26T10:16:58;40.58;;;38.67;;
85154;SDS011;75523;53.218;6.564;2024-02-26T10:19:26;42.38;;;40.10;;
85154;SDS011;75523;53.218;6.564;2024-02-26T10:21:59;40.33;;;37.55;;
85154;SDS011;75523;53.218;6.564;2024-02-26T10:24:25;41.58;;;38.97;;
85154;SDS011;75523;53.218;6.564;2024-02-26T10:26:52;42.72;;;40.72;;
85154;SDS011;75523;53.218;6.564;2024-02-26T10:29:18;38.92;;;37.03;;
85154;SDS011;75523;53.218;6.564;2024-02-26T10:31:45;44.22;;;42.15;;
85154;SDS011;75523;53.218;6.564;2024-02-26T10:34:10;41.95;;;39.85;;
85154;SDS011;75523;53.218;6.564;2024-02-26T10:36:36;38.17;;;35.90;;
85154;SDS011;75523;53.218;6.564;2024-02-26T10:39:03;38.85;;;37.05;;
85154;SDS011;75523;53.218;6.564;2024-02-26T10:41:30;41.50;;;39.63;;
85154;SDS011;75523;53.218;6.564;2024-02-26T10:43:55;42.60;;;40.63;;
85154;SDS011;75523;53.218;6.564;2024-02-26T10:46:21;40.53;;;38.63;;
85154;SDS011;75523;53.218;6.564;2024-02-26T10:48:50;41.85;;;39.95;;
85154;SDS011;75523;53.218;6.564;2024-02-26T10:51:16;42.58;;;40.53;;
85154;SDS011;75523;53.218;6.564;2024-02-26T10:53:57;40.40;;;38.10;;
85154;SDS011;75523;53.218;6.564;2024-02-26T10:56:24;42.30;;;40.22;;
85154;SDS011;75523;53.218;6.564;2024-02-26T10:58:52;41.97;;;39.97;;
85154;SDS011;75523;53.218;6.564;2024-02-26T11:01:19;38.83;;;37.03;;
85154;SDS011;75523;53.218;6.564;2024-02-26T11:03:46;42.15;;;40.15;;
85154;SDS011;75523;53.218;6.564;2024-02-26T11:06:13;38.90;;;37.03;;
85154;SDS011;75523;53.218;6.564;2024-02-26T11:08:39;40.47;;;38.70;;
85154;SDS011;75523;53.218;6.564;2024-02-26T11:11:05;39.00;;;37.30;;
85154;SDS011;75523;53.218;6.564;2024-02-26T11:13:31;43.53;;;41.20;;
85154;SDS011;75523;53.218;6.564;2024-02-26T11:15:56;42.38;;;40.47;;
85154;SDS011;75523;53.218;6.564;2024-02-26T11:18:23;42.85;;;40.85;;
85154;SDS011;75523;53.218;6.564;2024-02-26T11:20:49;42.72;;;40.72;;
85154;SDS011;75523;53.218;6.564;2024-02-26T11:23:14;43.47;;;41.38;;
85154;SDS011;75523;53.218;6.564;2024-02-26T11:25:40;42.10;;;40.10;;
85154;SDS011;75523;53.218;6.564;2024-02-26T11:28:07;38.53;;;36.63;;
85154;SDS011;75523;53.218;6.564;2024-02-26T11:30:39;44.08;;;41.78;;
85154;SDS011;75523;53.218;6.564;2024-02-26T11:33:07;45.75;;;43.45;;
85154;SDS011;75523;53.218;6.564;2024-02-26T11:35:34;42.65;;;40.63;;
85154;SDS011;75523;53.218;6.564;2024-02-26T11:38:01;42.37;;;40.47;;
85154;SDS011;75523;53.218;6.564;2024-02-26T11:40:27;44.60;;;42.30;;
85154;SDS011;75523;53.218;6.564;2024-02-26T11:42:53;41.40;;;39.40;;
85154;SDS011;75523;53.218;6.564;2024-02-26T11:48:14;44.65;;;42.55;;
85154;SDS011;75523;53.218;6.564;2024-02-26T11:50:41;45.63;;;43.33;;
85154;SDS011;75523;53.218;6.564;2024-02-26T11:58:59;43.25;;;41.15;;
85154;SDS011;75523;53.218;6.564;2024-02-26T12:04:26;44.03;;;41.83;;
85154;SDS011;75523;53.218;6.564;2024-02-26T12:06:55;41.10;;;38.92;;
85154;SDS011;75523;53.218;6.564;2024-02-26T12:09:31;43.45;;;41.25;;
85154;SDS011;75523;53.218;6.564;2024-02-26T12:12:05;44.45;;;42.17;;
85154;SDS011;75523;53.218;6.564;2024-02-26T12:14:50;46.40;;;43.80;;
85154;SDS011;75523;53.218;6.564;2024-02-26T12:17:21;45.25;;;42.90;;
85154;SDS011;75523;53.218;6.564;2024-02-26T12:19:47;45.40;;;42.83;;
85154;SDS011;75523;53.218;6.564;2024-02-26T12:22:13;43.72;;;41.53;;
85154;SDS011;75523;53.218;6.564;2024-02-26T12:24:40;45.58;;;42.78;;
85154;SDS011;75523;53.218;6.564;2024-02-26T12:27:05;46.80;;;44.40;;
85154;SDS011;75523;53.218;6.564;2024-02-26T12:29:31;42.65;;;40.38;;
85154;SDS011;75523;53.218;6.564;2024-02-26T12:31:57;45.58;;;43.13;;
85154;SDS011;75523;53.218;6.564;2024-02-26T12:34:22;47.22;;;44.75;;
85154;SDS011;75523;53.218;6.564;2024-02-26T12:36:48;44.92;;;42.33;;
85154;SDS011;75523;53.218;6.564;2024-02-26T12:39:14;43.13;;;40.83;;
85154;SDS011;75523;53.218;6.564;2024-02-26T12:41:40;44.83;;;42.45;;
85154;SDS011;75523;53.218;6.564;2024-02-26T12:44:05;46.42;;;43.67;;
85154;SDS011;75523;53.218;6.564;2024-02-26T12:46:32;45.85;;;43.30;;
85154;SDS011;75523;53.218;6.564;2024-02-26T12:48:58;47.17;;;44.63;;
85154;SDS011;75523;53.218;6.564;2024-02-26T12:51:25;45.13;;;42.80;;
85154;SDS011;75523;53.218;6.564;2024-02-26T12:53:51;47.50;;;45.00;;
85154;SDS011;75523;53.218;6.564;2024-02-26T12:56:18;46.33;;;43.55;;
85154;SDS011;75523;53.218;6.564;2024-02-26T12:58:44;47.63;;;44.58;;
85154;SDS011;75523;53.218;6.564;2024-02-26T13:01:13;45.50;;;42.90;;
85154;SDS011;75523;53.218;6.564;2024-02-26T13:03:40;45.38;;;42.75;;
85154;SDS011;75523;53.218;6.564;2024-02-26T13:06:06;43.65;;;41.22;;
85154;SDS011;75523;53.218;6.564;2024-02-26T13:08:32;46.75;;;44.25;;
85154;SDS011;75523;53.218;6.564;2024-02-26T13:10:58;46.33;;;43.97;;
85154;SDS011;75523;53.218;6.564;2024-02-26T13:13:24;43.85;;;41.50;;
85154;SDS011;75523;53.218;6.564;2024-02-26T13:15:50;46.08;;;43.70;;
85154;SDS011;75523;53.218;6.564;2024-02-26T13:18:27;46.95;;;44.28;;
85154;SDS011;75523;53.218;6.564;2024-02-26T13:20:53;47.30;;;44.70;;
85154;SDS011;75523;53.218;6.564;2024-02-26T13:23:18;43.20;;;40.90;;
85154;SDS011;75523;53.218;6.564;2024-02-26T13:25:45;43.20;;;40.78;;
85154;SDS011;75523;53.218;6.564;2024-02-26T13:30:41;45.63;;;43.13;;
85154;SDS011;75523;53.218;6.564;2024-02-26T13:33:10;45.00;;;42.78;;
85154;SDS011;75523;53.218;6.564;2024-02-26T13:35:37;48.03;;;45.25;;
85154;SDS011;75523;53.218;6.564;2024-02-26T13:38:04;42.97;;;40.67;;
85154;SDS011;75523;53.218;6.564;2024-02-26T13:40:31;41.13;;;38.90;;
85154;SDS011;75523;53.218;6.564;2024-02-26T13:42:56;46.35;;;43.67;;
85154;SDS011;75523;53.218;6.564;2024-02-26T13:45:22;45.17;;;42.78;;
85154;SDS011;75523;53.218;6.564;2024-02-26T13:47:47;44.42;;;41.95;;
85154;SDS011;75523;53.218;6.564;2024-02-26T13:50:13;44.22;;;41.75;;
85154;SDS011;75523;53.218;6.564;2024-02-26T13:52:39;42.65;;;40.22;;
85154;SDS011;75523;53.218;6.564;2024-02-26T13:55:04;45.40;;;42.90;;
85154;SDS011;75523;53.218;6.564;2024-02-26T13:57:31;46.05;;;43.40;;
85154;SDS011;75523;53.218;6.564;2024-02-26T13:59:56;49.30;;;46.63;;
85154;SDS011;75523;53.218;6.564;2024-02-26T14:02:22;43.72;;;41.38;;
85154;SDS011;75523;53.218;6.564;2024-02-26T14:04:47;44.45;;;41.95;;
85154;SDS011;75523;53.218;6.564;2024-02-26T14:07:13;45.50;;;42.92;;
85154;SDS011;75523;53.218;6.564;2024-02-26T14:09:39;45.53;;;43.00;;
85154;SDS011;75523;53.218;6.564;2024-02-26T14:12:04;43.47;;;41.08;;
85154;SDS011;75523;53.218;6.564;2024-02-26T14:14:30;46.80;;;44.20;;
85154;SDS011;75523;53.218;6.564;2024-02-26T14:16:58;47.53;;;44.80;;
85154;SDS011;75523;53.218;6.564;2024-02-26T14:19:25;45.58;;;43.13;;
85154;SDS011;75523;53.218;6.564;2024-02-26T14:21:51;45.97;;;43.00;;
85154;SDS011;75523;53.218;6.564;2024-02-26T14:24:16;46.50;;;43.63;;
85154;SDS011;75523;53.218;6.564;2024-02-26T14:26:42;43.13;;;40.75;;
85154;SDS011;75523;53.218;6.564;2024-02-26T14:29:08;45.08;;;42.47;;
85154;SDS011;75523;53.218;6.564;2024-02-26T14:31:33;49.65;;;46.42;;
85154;SDS011;75523;53.218;6.564;2024-02-26T14:33:59;46.00;;;43.03;;
85154;SDS011;75523;53.218;6.564;2024-02-26T14:36:25;44.45;;;41.72;;